Terminal Aerodrome Forecast
Issued by NWS Paducah, KY

Home | Current Version | Previous Version | Text Only | Print | Product List | Glossary On
Versions: 1 2 3 4 5 6 7 8 9 10 11 12 13 14 15 16 17 18
000
FTUS43 KPAH 161700
TAFPAH
TAF
KPAH 161720Z 1618/1718 14009G15KT P6SM SCT250
     FM170000 16004KT P6SM SCT250
     FM171400 17012G20KT P6SM SKC=

USA.gov is the U.S. government's official web portal to all federal, state and local government web resources and services.